Time;durP1;ratioP1;P1;durP2;ratioP2;P2;SDS_P1;SDS_P2;PMS_P1;PMS_P2;Temp;Humidity;BMP_temperature;BMP_pressure;BME280_temperature;BME280_humidity;BME280_pressure;Samples;Min_cycle;Max_cycle;Signal;HPM_P1;HPM_P2
2022/02/17 00:02:25;;;;;;;5.18;1.42;;;;;;;;;;5007049;28;20036;-68
2022/02/17 00:04:52;;;;;;;8.35;2.45;;;;;;;;;;5007327;28;20126;-69
2022/02/17 00:07:18;;;;;;;4.88;1.55;;;;;;;;;;5008324;28;20041;-69
2022/02/17 00:09:44;;;;;;;5.90;1.45;;;;;;;;;;5008671;28;20057;-69
2022/02/17 00:12:10;;;;;;;5.57;1.75;;;;;;;;;;5007140;28;20433;-68
2022/02/17 00:14:36;;;;;;;5.85;1.55;;;;;;;;;;5007840;28;20061;-69
2022/02/17 00:17:02;;;;;;;7.32;1.88;;;;;;;;;;5006124;28;20061;-69
2022/02/17 00:19:28;;;;;;;7.68;1.77;;;;;;;;;;5006519;28;20423;-69
2022/02/17 00:21:54;;;;;;;7.15;2.20;;;;;;;;;;5009348;28;20040;-69
2022/02/17 00:24:20;;;;;;;7.20;2.05;;;;;;;;;;5011729;28;20160;-70
2022/02/17 00:26:46;;;;;;;5.85;1.80;;;;;;;;;;5012329;28;20132;-70
2022/02/17 00:29:13;;;;;;;6.60;1.60;;;;;;;;;;5011673;28;20052;-70
2022/02/17 00:31:39;;;;;;;5.47;1.45;;;;;;;;;;5011793;28;20108;-70
2022/02/17 00:34:07;;;;;;;5.65;1.40;;;;;;;;;;5011809;28;20029;-70
2022/02/17 00:36:33;;;;;;;6.57;1.58;;;;;;;;;;5011405;28;20034;-70
2022/02/17 00:38:59;;;;;;;6.03;1.85;;;;;;;;;;5012153;28;20076;-70
2022/02/17 00:41:26;;;;;;;5.05;1.65;;;;;;;;;;5011832;28;20427;-70
2022/02/17 00:43:52;;;;;;;6.38;1.92;;;;;;;;;;5011920;28;20124;-71
2022/02/17 00:46:19;;;;;;;7.03;2.10;;;;;;;;;;5011001;28;20026;-70
2022/02/17 00:48:45;;;;;;;5.72;1.50;;;;;;;;;;5011577;28;20053;-70
2022/02/17 00:51:11;;;;;;;6.18;1.50;;;;;;;;;;5011462;28;20530;-70
2022/02/17 00:53:37;;;;;;;6.40;1.77;;;;;;;;;;5011118;28;20030;-70
2022/02/17 00:56:03;;;;;;;5.35;1.48;;;;;;;;;;5011582;28;20042;-69
2022/02/17 00:58:29;;;;;;;5.45;1.83;;;;;;;;;;5011772;28;20018;-68
2022/02/17 01:00:55;;;;;;;5.25;1.55;;;;;;;;;;5010682;28;20033;-70
2022/02/17 01:03:21;;;;;;;5.32;1.50;;;;;;;;;;5011410;28;20096;-70
2022/02/17 01:05:47;;;;;;;5.53;1.67;;;;;;;;;;5011204;28;20131;-70
2022/02/17 01:08:13;;;;;;;4.38;1.35;;;;;;;;;;5010249;28;20468;-69
2022/02/17 01:10:39;;;;;;;7.68;1.70;;;;;;;;;;5011308;28;20105;-70
2022/02/17 01:13:05;;;;;;;4.97;1.60;;;;;;;;;;5010641;28;20052;-69
2022/02/17 01:15:32;;;;;;;7.00;2.13;;;;;;;;;;5010897;28;20057;-69
2022/02/17 01:17:58;;;;;;;6.22;1.45;;;;;;;;;;5010649;28;20057;-69
2022/02/17 01:20:24;;;;;;;7.90;2.30;;;;;;;;;;5010763;28;20026;-69
2022/02/17 01:22:51;;;;;;;7.03;1.80;;;;;;;;;;5009176;28;20809;-68
2022/02/17 01:25:17;;;;;;;6.65;1.63;;;;;;;;;;5010714;28;20092;-70
2022/02/17 01:27:43;;;;;;;5.68;1.42;;;;;;;;;;5010951;28;20025;-70
2022/02/17 01:30:10;;;;;;;7.07;1.70;;;;;;;;;;5010973;28;20030;-70
2022/02/17 01:32:36;;;;;;;5.40;1.48;;;;;;;;;;5008930;28;20400;-69
2022/02/17 01:35:02;;;;;;;6.00;1.70;;;;;;;;;;5010623;28;20180;-69
2022/02/17 01:37:28;;;;;;;5.43;1.40;;;;;;;;;;5010280;28;20060;-69
2022/02/17 01:39:54;;;;;;;5.43;1.30;;;;;;;;;;5010389;28;20113;-69
2022/02/17 01:42:21;;;;;;;6.38;1.55;;;;;;;;;;5010019;28;20472;-69
2022/02/17 01:44:48;;;;;;;4.90;1.60;;;;;;;;;;5008743;28;20121;-69
2022/02/17 01:47:15;;;;;;;7.38;2.35;;;;;;;;;;5009960;28;20028;-69
2022/02/17 01:49:42;;;;;;;7.72;1.40;;;;;;;;;;5008759;28;20084;-70
2022/02/17 01:52:09;;;;;;;4.18;1.08;;;;;;;;;;5009921;28;20476;-71
2022/02/17 01:54:35;;;;;;;5.60;1.77;;;;;;;;;;5009902;28;20130;-70
2022/02/17 01:57:04;;;;;;;6.05;1.52;;;;;;;;;;5010563;28;20014;-70
2022/02/17 01:59:31;;;;;;;5.18;1.40;;;;;;;;;;5009901;28;20105;-70
2022/02/17 02:01:57;;;;;;;5.80;1.50;;;;;;;;;;5010881;28;20164;-70
2022/02/17 02:04:23;;;;;;;8.20;1.73;;;;;;;;;;5009736;28;20033;-70
2022/02/17 02:06:49;;;;;;;6.50;1.40;;;;;;;;;;5010132;28;20065;-70
2022/02/17 02:09:17;;;;;;;5.40;1.42;;;;;;;;;;5009256;28;20069;-69
2022/02/17 02:11:44;;;;;;;4.03;1.13;;;;;;;;;;5010028;28;20116;-70
2022/02/17 02:14:14;;;;;;;6.32;1.60;;;;;;;;;;5009429;28;20061;-70
2022/02/17 02:16:40;;;;;;;4.22;1.00;;;;;;;;;;5010142;28;20060;-70
2022/02/17 02:19:06;;;;;;;7.07;1.55;;;;;;;;;;5009596;28;20062;-69
2022/02/17 02:21:32;;;;;;;6.10;1.55;;;;;;;;;;5009783;28;20460;-69
2022/02/17 02:23:58;;;;;;;5.80;1.70;;;;;;;;;;5009091;28;20029;-69
2022/02/17 02:26:27;;;;;;;6.95;1.70;;;;;;;;;;5009604;28;20030;-70
2022/02/17 02:28:54;;;;;;;6.22;1.58;;;;;;;;;;5009613;28;20025;-69
2022/02/17 02:31:20;;;;;;;6.13;1.95;;;;;;;;;;5009698;28;20454;-70
2022/02/17 02:33:46;;;;;;;6.47;1.88;;;;;;;;;;5008323;28;20026;-69
2022/02/17 02:36:12;;;;;;;4.75;1.20;;;;;;;;;;5008418;28;20084;-70
2022/02/17 02:38:38;;;;;;;6.88;1.58;;;;;;;;;;5008334;28;20108;-70
2022/02/17 02:41:04;;;;;;;7.05;1.98;;;;;;;;;;5009817;28;20076;-69
2022/02/17 02:43:30;;;;;;;9.65;1.90;;;;;;;;;;5009603;28;20068;-70
2022/02/17 02:45:56;;;;;;;6.25;2.05;;;;;;;;;;5008715;28;20040;-70
2022/02/17 02:48:23;;;;;;;6.28;2.08;;;;;;;;;;5009129;28;20523;-70
2022/02/17 02:50:49;;;;;;;6.68;1.45;;;;;;;;;;5009060;28;20022;-69
2022/02/17 02:53:16;;;;;;;7.43;1.55;;;;;;;;;;4998370;28;20034;-70
2022/02/17 02:55:44;;;;;;;6.25;1.33;;;;;;;;;;5001702;28;20506;-70
2022/02/17 02:58:10;;;;;;;5.60;1.33;;;;;;;;;;5009212;28;20026;-70
2022/02/17 03:00:36;;;;;;;5.13;1.25;;;;;;;;;;5008585;28;20105;-69
2022/02/17 03:03:02;;;;;;;5.25;1.30;;;;;;;;;;5009278;28;20037;-69
2022/02/17 03:05:28;;;;;;;6.47;1.92;;;;;;;;;;5007429;28;20057;-69
2022/02/17 03:07:55;;;;;;;6.05;2.00;;;;;;;;;;5009270;28;20061;-69
2022/02/17 03:10:21;;;;;;;5.22;1.38;;;;;;;;;;5008772;28;20026;-69
2022/02/17 03:12:48;;;;;;;5.78;1.50;;;;;;;;;;5007127;28;20084;-69
2022/02/17 03:15:14;;;;;;;6.85;1.52;;;;;;;;;;5008558;28;20120;-69
2022/02/17 03:17:40;;;;;;;5.95;1.25;;;;;;;;;;5008876;28;20029;-70
2022/02/17 03:20:09;;;;;;;5.03;1.40;;;;;;;;;;5008672;28;20439;-70
2022/02/17 03:22:39;;;;;;;5.85;1.42;;;;;;;;;;5008692;28;20021;-69
2022/02/17 03:25:08;;;;;;;5.70;1.90;;;;;;;;;;5008654;28;20022;-69
2022/02/17 03:27:36;;;;;;;5.17;1.37;;;;;;;;;;5007635;28;20108;-70
2022/02/17 03:30:02;;;;;;;5.47;1.25;;;;;;;;;;5009243;28;20030;-69
2022/02/17 03:32:28;;;;;;;7.55;1.67;;;;;;;;;;5008548;28;20026;-70
2022/02/17 03:34:54;;;;;;;8.02;1.65;;;;;;;;;;5007451;28;20148;-70
2022/02/17 03:37:21;;;;;;;10.25;2.13;;;;;;;;;;5007442;28;20050;-70
2022/02/17 03:39:47;;;;;;;5.90;1.42;;;;;;;;;;5008630;28;20041;-70
2022/02/17 03:42:13;;;;;;;9.02;1.77;;;;;;;;;;5007067;28;20101;-70
2022/02/17 03:44:39;;;;;;;6.88;1.40;;;;;;;;;;5009081;28;20113;-70
2022/02/17 03:47:05;;;;;;;7.13;1.77;;;;;;;;;;5008420;28;20439;-70
2022/02/17 03:49:31;;;;;;;6.75;2.13;;;;;;;;;;5012728;28;20476;-70
2022/02/17 03:51:57;;;;;;;7.63;2.38;;;;;;;;;;5007917;28;20037;-70
2022/02/17 03:54:23;;;;;;;7.80;1.95;;;;;;;;;;5008685;28;20456;-71
2022/02/17 03:56:49;;;;;;;8.65;1.63;;;;;;;;;;5011657;28;20045;-69
2022/02/17 03:59:15;;;;;;;8.20;1.70;;;;;;;;;;5012898;28;20033;-69
2022/02/17 04:01:41;;;;;;;7.63;1.67;;;;;;;;;;5012556;28;20018;-70
2022/02/17 04:04:08;;;;;;;5.68;1.38;;;;;;;;;;5012323;28;20109;-71
2022/02/17 04:06:35;;;;;;;7.30;1.50;;;;;;;;;;5012125;28;20030;-69
2022/02/17 04:09:01;;;;;;;7.05;1.95;;;;;;;;;;5012000;28;20443;-69
2022/02/17 04:11:27;;;;;;;11.05;2.20;;;;;;;;;;5011086;28;20529;-70
2022/02/17 04:13:53;;;;;;;6.68;1.23;;;;;;;;;;5010269;28;20041;-69
2022/02/17 04:16:20;;;;;;;9.20;1.70;;;;;;;;;;5010454;28;20022;-68
2022/02/17 04:18:46;;;;;;;7.47;1.90;;;;;;;;;;5011750;28;20496;-69
2022/02/17 04:21:13;;;;;;;8.35;1.63;;;;;;;;;;5011915;28;20034;-69
2022/02/17 04:23:44;;;;;;;5.78;1.60;;;;;;;;;;5011705;28;20037;-69
2022/02/17 04:26:11;;;;;;;5.03;1.10;;;;;;;;;;5011950;28;20030;-69
2022/02/17 04:28:37;;;;;;;4.78;1.80;;;;;;;;;;5011911;28;20044;-69
2022/02/17 04:31:03;;;;;;;7.50;2.00;;;;;;;;;;5011696;28;20033;-70
2022/02/17 04:33:29;;;;;;;6.57;1.98;;;;;;;;;;5011497;28;20041;-69
2022/02/17 04:35:55;;;;;;;8.73;1.77;;;;;;;;;;5011356;28;20072;-70
2022/02/17 04:38:21;;;;;;;8.57;1.50;;;;;;;;;;5011559;28;20030;-70
2022/02/17 04:43:32;;;;;;;9.73;2.20;;;;;;;;;;5011533;28;20060;-70
2022/02/17 04:45:58;;;;;;;7.45;1.88;;;;;;;;;;5010185;28;20657;-70
2022/02/17 04:48:24;;;;;;;4.43;1.50;;;;;;;;;;5015821;28;20531;-70
2022/02/17 04:50:50;;;;;;;5.88;1.50;;;;;;;;;;5011431;28;20113;-70
2022/02/17 04:53:17;;;;;;;7.45;2.05;;;;;;;;;;5011231;28;20030;-70
2022/02/17 04:55:44;;;;;;;6.57;1.65;;;;;;;;;;5011467;28;20073;-70
2022/02/17 04:58:10;;;;;;;4.65;1.20;;;;;;;;;;5011289;28;20476;-70
2022/02/17 05:00:36;;;;;;;6.75;1.50;;;;;;;;;;5011348;28;20101;-70
2022/02/17 05:03:02;;;;;;;7.28;2.15;;;;;;;;;;5010583;28;20026;-70
2022/02/17 05:05:28;;;;;;;9.55;2.70;;;;;;;;;;5010913;28;20455;-68
2022/02/17 05:07:54;;;;;;;8.65;1.80;;;;;;;;;;5008819;28;20559;-70
2022/02/17 05:10:20;;;;;;;9.00;2.65;;;;;;;;;;5010696;28;20641;-67
2022/02/17 05:12:46;;;;;;;8.88;2.13;;;;;;;;;;5011349;28;20101;-69
2022/02/17 05:15:12;;;;;;;8.20;1.73;;;;;;;;;;5010343;28;20500;-71
2022/02/17 05:17:39;;;;;;;10.50;3.08;;;;;;;;;;5010302;28;20033;-70
2022/02/17 05:20:06;;;;;;;10.13;1.90;;;;;;;;;;5011141;28;20128;-69
2022/02/17 05:22:32;;;;;;;6.90;1.92;;;;;;;;;;5011625;28;20108;-68
2022/02/17 05:24:58;;;;;;;6.75;1.75;;;;;;;;;;5011070;28;20026;-70
2022/02/17 05:27:25;;;;;;;8.30;1.75;;;;;;;;;;5010829;28;20490;-69
2022/02/17 05:29:51;;;;;;;10.63;1.92;;;;;;;;;;5009774;28;20018;-69
2022/02/17 05:32:17;;;;;;;8.73;2.17;;;;;;;;;;4999878;28;20030;-70
2022/02/17 05:34:43;;;;;;;7.40;2.15;;;;;;;;;;5009021;28;20038;-70
2022/02/17 05:37:09;;;;;;;6.97;1.52;;;;;;;;;;5010261;28;20480;-69
2022/02/17 05:39:35;;;;;;;10.55;2.10;;;;;;;;;;5010732;28;20071;-69
2022/02/17 05:42:01;;;;;;;7.80;2.30;;;;;;;;;;5009796;28;20060;-70
2022/02/17 05:44:27;;;;;;;11.18;2.72;;;;;;;;;;5009229;28;20442;-69
2022/02/17 05:46:53;;;;;;;14.40;2.80;;;;;;;;;;5008886;28;20416;-69
2022/02/17 05:49:19;;;;;;;12.90;2.88;;;;;;;;;;5010320;28;20033;-69
2022/02/17 05:51:46;;;;;;;10.95;2.50;;;;;;;;;;5010205;28;20033;-70
2022/02/17 05:54:12;;;;;;;11.30;2.38;;;;;;;;;;5009791;28;20049;-69
2022/02/17 05:56:40;;;;;;;13.45;2.92;;;;;;;;;;5010271;28;20026;-70
2022/02/17 05:59:06;;;;;;;13.25;2.85;;;;;;;;;;5010345;28;20041;-69
2022/02/17 06:01:32;;;;;;;10.05;2.40;;;;;;;;;;5009709;28;20419;-70
2022/02/17 06:03:58;;;;;;;9.73;2.60;;;;;;;;;;5010174;28;20066;-71
2022/02/17 06:06:24;;;;;;;8.82;2.10;;;;;;;;;;5010228;28;20037;-71
2022/02/17 06:08:50;;;;;;;8.63;2.55;;;;;;;;;;5010262;28;20022;-71
2022/02/17 06:11:17;;;;;;;10.20;2.72;;;;;;;;;;5010002;28;20041;-68
2022/02/17 06:13:43;;;;;;;13.77;2.78;;;;;;;;;;5009523;28;20445;-69
2022/02/17 06:16:09;;;;;;;9.57;2.42;;;;;;;;;;5008479;28;20045;-69
2022/02/17 06:18:36;;;;;;;11.60;2.78;;;;;;;;;;5009775;28;20050;-69
2022/02/17 06:21:02;;;;;;;9.95;2.50;;;;;;;;;;5009431;28;20030;-69
2022/02/17 06:23:28;;;;;;;11.52;2.83;;;;;;;;;;5009587;28;20025;-69
2022/02/17 06:25:55;;;;;;;9.82;2.40;;;;;;;;;;5010248;28;20026;-70
2022/02/17 06:28:21;;;;;;;13.38;3.00;;;;;;;;;;5009732;28;20420;-69
2022/02/17 06:30:47;;;;;;;9.52;2.08;;;;;;;;;;5009966;28;20365;-69
2022/02/17 06:33:13;;;;;;;12.15;2.97;;;;;;;;;;5008012;28;20049;-69
2022/02/17 06:35:39;;;;;;;14.57;2.67;;;;;;;;;;5009764;28;20045;-69
2022/02/17 06:38:07;;;;;;;16.35;3.05;;;;;;;;;;5009857;28;20032;-70
2022/02/17 06:40:33;;;;;;;10.63;2.28;;;;;;;;;;5010369;28;20523;-70
2022/02/17 06:43:06;;;;;;;12.65;2.53;;;;;;;;;;5010481;28;20076;-69
2022/02/17 06:45:35;;;;;;;11.27;2.15;;;;;;;;;;5009082;28;20065;-68
2022/02/17 06:48:02;;;;;;;11.10;2.03;;;;;;;;;;5009347;28;20018;-68
2022/02/17 06:50:28;;;;;;;11.20;2.20;;;;;;;;;;5009645;28;20064;-68
2022/02/17 06:52:54;;;;;;;7.50;1.73;;;;;;;;;;5009103;28;20057;-68
2022/02/17 06:55:20;;;;;;;10.43;1.60;;;;;;;;;;5009404;28;20070;-68
2022/02/17 06:57:46;;;;;;;7.93;2.30;;;;;;;;;;5009226;28;20037;-68
2022/02/17 07:00:12;;;;;;;9.77;1.80;;;;;;;;;;5008928;28;20109;-68
2022/02/17 07:02:39;;;;;;;11.95;2.25;;;;;;;;;;5009606;28;21519;-68
2022/02/17 07:05:05;;;;;;;8.88;1.95;;;;;;;;;;5009603;28;20029;-68
2022/02/17 07:07:35;;;;;;;10.88;2.22;;;;;;;;;;5009034;28;20029;-69
2022/02/17 07:10:03;;;;;;;9.27;2.60;;;;;;;;;;5008288;28;20080;-69
2022/02/17 07:12:29;;;;;;;6.80;1.77;;;;;;;;;;5009208;28;20032;-69
2022/02/17 07:14:57;;;;;;;9.27;2.42;;;;;;;;;;5006926;28;20131;-69
2022/02/17 07:17:24;;;;;;;10.18;1.80;;;;;;;;;;5009051;28;20032;-69
2022/02/17 07:19:51;;;;;;;9.15;2.60;;;;;;;;;;5008570;28;20514;-70
2022/02/17 07:22:17;;;;;;;7.32;1.98;;;;;;;;;;4989217;28;20109;-69
2022/02/17 07:24:43;;;;;;;7.80;1.88;;;;;;;;;;5001413;28;20557;-69
2022/02/17 07:27:10;;;;;;;7.05;1.77;;;;;;;;;;5008846;28;20030;-69
2022/02/17 07:29:36;;;;;;;9.68;2.25;;;;;;;;;;5008703;28;20662;-67
2022/02/17 07:32:04;;;;;;;9.80;2.17;;;;;;;;;;5008495;28;20558;-68
2022/02/17 07:34:30;;;;;;;8.32;1.80;;;;;;;;;;5008362;28;20400;-68
2022/02/17 07:36:58;;;;;;;7.63;2.08;;;;;;;;;;5009243;28;20033;-68
2022/02/17 07:39:23;;;;;;;8.32;2.03;;;;;;;;;;5008811;28;20049;-68
2022/02/17 07:41:49;;;;;;;7.25;1.63;;;;;;;;;;5007381;28;20053;-67
2022/02/17 07:44:16;;;;;;;7.30;1.90;;;;;;;;;;5008815;28;20676;-68
2022/02/17 07:46:42;;;;;;;6.57;2.10;;;;;;;;;;5008490;28;20018;-68
2022/02/17 07:49:09;;;;;;;7.70;1.98;;;;;;;;;;5008121;28;20026;-68
2022/02/17 07:51:35;;;;;;;7.30;1.92;;;;;;;;;;5007589;28;20040;-68
2022/02/17 07:54:01;;;;;;;9.13;2.25;;;;;;;;;;5006878;28;20428;-69
2022/02/17 07:56:28;;;;;;;9.82;2.08;;;;;;;;;;5008217;28;20037;-69
2022/02/17 07:58:54;;;;;;;7.65;1.60;;;;;;;;;;5009396;28;20337;-68
2022/02/17 08:01:20;;;;;;;6.30;1.55;;;;;;;;;;5008537;28;20026;-69
2022/02/17 08:03:46;;;;;;;7.68;1.95;;;;;;;;;;5008443;28;20036;-69
2022/02/17 08:06:12;;;;;;;4.63;1.25;;;;;;;;;;5007937;28;20133;-69
2022/02/17 08:08:39;;;;;;;10.07;2.65;;;;;;;;;;5008725;28;20029;-68
2022/02/17 08:11:05;;;;;;;6.00;1.48;;;;;;;;;;5008107;28;20017;-68
2022/02/17 08:13:32;;;;;;;7.25;2.05;;;;;;;;;;5008405;28;20121;-68
2022/02/17 08:15:58;;;;;;;5.88;1.35;;;;;;;;;;5008275;28;20056;-69
2022/02/17 08:18:24;;;;;;;6.53;1.92;;;;;;;;;;5007611;28;20018;-68
2022/02/17 08:20:50;;;;;;;10.23;2.22;;;;;;;;;;5007267;28;20057;-69
2022/02/17 08:23:18;;;;;;;7.90;2.17;;;;;;;;;;5008275;28;20053;-69
2022/02/17 08:25:45;;;;;;;6.45;1.55;;;;;;;;;;5007370;28;20022;-69
2022/02/17 08:28:11;;;;;;;13.23;2.42;;;;;;;;;;5007694;28;20072;-68
2022/02/17 08:30:37;;;;;;;6.10;2.10;;;;;;;;;;5007899;28;20026;-67
2022/02/17 08:33:03;;;;;;;7.13;2.38;;;;;;;;;;5006185;28;20026;-69
2022/02/17 08:35:31;;;;;;;8.07;1.52;;;;;;;;;;5006413;28;20653;-69
2022/02/17 08:37:59;;;;;;;5.85;1.40;;;;;;;;;;5006495;28;20052;-69
2022/02/17 08:40:26;;;;;;;6.88;2.05;;;;;;;;;;5006281;28;20021;-69
2022/02/17 08:42:52;;;;;;;8.63;1.48;;;;;;;;;;5006437;28;20112;-69
2022/02/17 08:45:18;;;;;;;8.27;1.45;;;;;;;;;;5009213;28;20554;-69
2022/02/17 08:47:44;;;;;;;8.48;1.83;;;;;;;;;;5010014;28;20022;-70
2022/02/17 08:50:11;;;;;;;5.25;1.38;;;;;;;;;;5009689;28;20104;-69
2022/02/17 08:52:37;;;;;;;7.78;1.95;;;;;;;;;;5010933;28;20112;-68
2022/02/17 08:55:03;;;;;;;10.30;1.92;;;;;;;;;;5009482;28;20125;-68
2022/02/17 08:57:29;;;;;;;8.95;2.05;;;;;;;;;;5009163;28;20029;-69
2022/02/17 08:59:55;;;;;;;8.30;1.60;;;;;;;;;;5011482;28;20518;-68
2022/02/17 09:02:23;;;;;;;13.90;1.95;;;;;;;;;;5010852;28;20093;-68
2022/02/17 09:04:49;;;;;;;9.77;1.63;;;;;;;;;;5011187;28;20030;-69
2022/02/17 09:07:15;;;;;;;9.65;1.85;;;;;;;;;;5011162;28;20022;-71
2022/02/17 09:09:41;;;;;;;6.22;1.40;;;;;;;;;;5011398;28;20034;-68
2022/02/17 09:12:08;;;;;;;7.97;1.77;;;;;;;;;;5009269;28;20026;-68
2022/02/17 09:14:34;;;;;;;9.00;1.90;;;;;;;;;;5010907;28;20078;-67
2022/02/17 09:17:00;;;;;;;6.63;1.50;;;;;;;;;;5010399;28;20030;-68
2022/02/17 09:19:26;;;;;;;7.47;1.63;;;;;;;;;;5007065;28;20049;-68
2022/02/17 09:21:52;;;;;;;10.75;2.13;;;;;;;;;;5011177;28;20030;-67
2022/02/17 09:24:19;;;;;;;6.45;1.30;;;;;;;;;;5007280;28;20037;-67
2022/02/17 09:26:45;;;;;;;9.70;2.55;;;;;;;;;;5010771;28;20459;-65
2022/02/17 09:29:12;;;;;;;6.07;1.58;;;;;;;;;;5009161;28;20101;-62
2022/02/17 09:31:38;;;;;;;6.20;1.40;;;;;;;;;;5010319;28;20033;-63
2022/02/17 09:34:04;;;;;;;9.93;1.80;;;;;;;;;;5010186;28;20092;-63
2022/02/17 09:36:30;;;;;;;8.23;1.90;;;;;;;;;;5010222;28;20126;-60
2022/02/17 09:38:57;;;;;;;7.53;1.73;;;;;;;;;;5009743;28;20052;-60
2022/02/17 09:41:23;;;;;;;6.65;1.65;;;;;;;;;;5009659;28;20108;-61
2022/02/17 09:43:51;;;;;;;7.53;1.45;;;;;;;;;;5010272;28;20053;-59
2022/02/17 09:46:21;;;;;;;11.20;2.15;;;;;;;;;;5008671;28;20084;-59
2022/02/17 09:48:47;;;;;;;;;;;;;;;;;;5010420;28;20440;-60
2022/02/17 09:51:13;;;;;;;6.45;1.25;;;;;;;;;;5009823;28;19972;-60
2022/02/17 09:53:39;;;;;;;6.85;1.80;;;;;;;;;;5009175;28;20539;-59
2022/02/17 09:56:06;;;;;;;8.23;1.92;;;;;;;;;;5009677;28;20138;-59
2022/02/17 09:58:32;;;;;;;9.35;2.38;;;;;;;;;;5009568;28;20030;-60
2022/02/17 10:00:58;;;;;;;10.73;2.03;;;;;;;;;;5009095;28;20072;-60
2022/02/17 10:03:29;;;;;;;11.45;2.00;;;;;;;;;;5009293;28;20156;-59
2022/02/17 10:06:08;;;;;;;11.15;2.10;;;;;;;;;;5009073;28;20061;-60
2022/02/17 10:08:34;;;;;;;16.37;2.20;;;;;;;;;;5009305;28;20065;-59
2022/02/17 10:11:01;;;;;;;11.55;2.13;;;;;;;;;;5009621;28;20028;-59
2022/02/17 10:13:27;;;;;;;16.35;2.15;;;;;;;;;;5007038;28;20065;-59
2022/02/17 10:15:59;;;;;;;14.65;3.08;;;;;;;;;;5008183;28;20088;-60
2022/02/17 10:18:30;;;;;;;18.08;1.95;;;;;;;;;;5009356;28;20026;-59
2022/02/17 10:20:56;;;;;;;14.27;2.75;;;;;;;;;;5008720;28;20022;-60
2022/02/17 10:23:23;;;;;;;21.38;2.67;;;;;;;;;;5009243;28;20037;-59
2022/02/17 10:26:03;;;;;;;18.95;2.80;;;;;;;;;;5009335;28;20034;-59
2022/02/17 10:28:32;;;;;;;18.05;2.20;;;;;;;;;;5007972;28;20181;-61
2022/02/17 10:30:59;;;;;;;20.25;2.55;;;;;;;;;;5008580;28;20053;-59
2022/02/17 10:33:36;;;;;;;14.07;2.17;;;;;;;;;;5009841;28;20037;-60
2022/02/17 10:36:02;;;;;;;19.70;3.03;;;;;;;;;;5009071;28;20045;-60
2022/02/17 10:38:28;;;;;;;16.48;2.65;;;;;;;;;;5008907;28;20021;-60
2022/02/17 10:40:54;;;;;;;19.08;2.63;;;;;;;;;;5008772;28;20238;-60
2022/02/17 10:43:22;;;;;;;12.40;1.98;;;;;;;;;;5009117;28;20105;-60
2022/02/17 10:45:50;;;;;;;11.25;1.98;;;;;;;;;;5008922;28;20032;-59
2022/02/17 10:48:24;;;;;;;15.60;2.10;;;;;;;;;;5009706;28;20030;-60
2022/02/17 10:51:03;;;;;;;14.68;2.33;;;;;;;;;;5008619;28;20464;-59
2022/02/17 10:53:30;;;;;;;14.55;2.33;;;;;;;;;;5008459;28;20651;-60
2022/02/17 10:56:00;;;;;;;15.15;2.42;;;;;;;;;;5008845;28;20484;-60
2022/02/17 10:58:29;;;;;;;;;;;;;;;;;;5009331;28;20184;-60
2022/02/17 11:00:56;;;;;;;16.13;2.60;;;;;;;;;;5008445;28;19992;-60
2022/02/17 11:03:23;;;;;;;10.45;2.60;;;;;;;;;;5008946;28;20040;-59
2022/02/17 11:05:50;;;;;;;15.23;3.80;;;;;;;;;;5007892;28;20539;-59
2022/02/17 11:08:16;;;;;;;8.40;1.52;;;;;;;;;;5008031;28;20140;-60
2022/02/17 11:10:43;;;;;;;10.20;2.00;;;;;;;;;;5008491;28;20157;-60
2022/02/17 11:13:13;;;;;;;10.90;2.00;;;;;;;;;;5007688;28;20488;-60
2022/02/17 11:15:40;;;;;;;13.13;2.45;;;;;;;;;;5008092;28;20162;-59
2022/02/17 11:18:06;;;;;;;8.95;1.75;;;;;;;;;;5007977;28;20021;-59
2022/02/17 11:20:33;;;;;;;7.22;1.90;;;;;;;;;;5008745;28;20064;-60
2022/02/17 11:22:59;;;;;;;8.45;1.58;;;;;;;;;;5008020;28;20484;-58
2022/02/17 11:25:36;;;;;;;11.35;2.42;;;;;;;;;;5008561;28;20117;-59
2022/02/17 11:28:05;;;;;;;11.50;1.80;;;;;;;;;;5008499;28;20026;-59
2022/02/17 11:30:31;;;;;;;5.95;1.73;;;;;;;;;;5008378;28;20030;-59
2022/02/17 11:33:16;;;;;;;8.82;1.95;;;;;;;;;;5007793;28;20064;-59
2022/02/17 11:35:42;;;;;;;9.02;1.70;;;;;;;;;;5007818;28;20042;-59
2022/02/17 11:38:33;;;;;;;7.43;1.52;;;;;;;;;;5007522;28;20018;-59
2022/02/17 11:41:08;;;;;;;4.75;1.20;;;;;;;;;;5007994;28;20183;-59
2022/02/17 11:43:35;;;;;;;7.18;1.40;;;;;;;;;;5007840;28;20022;-59
2022/02/17 11:46:01;;;;;;;10.05;1.88;;;;;;;;;;5007153;28;20480;-59
2022/02/17 11:48:41;;;;;;;8.52;1.70;;;;;;;;;;5006017;28;20073;-59
2022/02/17 11:51:17;;;;;;;7.07;1.10;;;;;;;;;;5005463;28;20103;-59
2022/02/17 11:54:15;;;;;;;11.77;1.85;;;;;;;;;;5006224;28;20030;-59
2022/02/17 11:56:47;;;;;;;8.18;1.40;;;;;;;;;;5003903;28;20061;-60
2022/02/17 11:59:19;;;;;;;10.70;1.85;;;;;;;;;;5007179;28;20037;-59
2022/02/17 12:01:45;;;;;;;7.97;1.60;;;;;;;;;;5007748;28;20033;-58
2022/02/17 12:04:25;;;;;;;8.50;2.00;;;;;;;;;;5007301;28;20033;-59
2022/02/17 12:06:53;;;;;;;9.10;1.83;;;;;;;;;;5007903;28;20109;-59
2022/02/17 12:09:41;;;;;;;12.07;2.13;;;;;;;;;;5007504;28;20044;-58
2022/02/17 12:12:10;;;;;;;10.20;2.08;;;;;;;;;;5006569;28;20498;-59
2022/02/17 12:14:39;;;;;;;5.80;1.27;;;;;;;;;;5007218;28;20144;-58
2022/02/17 12:17:07;;;;;;;7.00;1.77;;;;;;;;;;5008058;28;20038;-59
2022/02/17 12:19:33;;;;;;;6.57;1.23;;;;;;;;;;5011111;28;20381;-59
2022/02/17 12:22:15;;;;;;;8.20;1.48;;;;;;;;;;5007875;28;20026;-58
2022/02/17 12:24:46;;;;;;;8.48;1.45;;;;;;;;;;5011631;28;20104;-59
2022/02/17 12:27:20;;;;;;;9.93;1.40;;;;;;;;;;5011771;28;20096;-59
2022/02/17 12:29:47;;;;;;;11.73;1.88;;;;;;;;;;5011159;28;20476;-59
2022/02/17 12:32:17;;;;;;;9.30;1.40;;;;;;;;;;5011954;28;20113;-60
2022/02/17 12:34:43;;;;;;;8.55;1.38;;;;;;;;;;5011574;28;20109;-59
2022/02/17 12:37:16;;;;;;;9.77;1.50;;;;;;;;;;5011198;28;20057;-59
2022/02/17 12:39:46;;;;;;;11.02;1.55;;;;;;;;;;5011088;28;20026;-59
2022/02/17 12:42:13;;;;;;;10.77;1.55;;;;;;;;;;5010711;28;20498;-59
2022/02/17 12:44:41;;;;;;;12.10;2.22;;;;;;;;;;5011068;28;20036;-59
2022/02/17 12:47:08;;;;;;;11.25;1.83;;;;;;;;;;5012149;28;20033;-60
2022/02/17 12:49:34;;;;;;;11.93;1.80;;;;;;;;;;5012739;28;20498;-61
2022/02/17 12:52:08;;;;;;;5.22;1.20;;;;;;;;;;5010230;28;20129;-61
2022/02/17 12:54:34;;;;;;;13.10;1.38;;;;;;;;;;5010469;28;20565;-61
2022/02/17 12:57:07;;;;;;;11.90;1.73;;;;;;;;;;5010720;28;20532;-62
2022/02/17 12:59:33;;;;;;;6.38;1.38;;;;;;;;;;5007954;28;20460;-61
2022/02/17 13:02:00;;;;;;;8.40;1.77;;;;;;;;;;5010997;28;20833;-62
2022/02/17 13:04:28;;;;;;;8.73;1.80;;;;;;;;;;5010844;28;20488;-61
2022/02/17 13:06:59;;;;;;;6.22;1.40;;;;;;;;;;5009008;28;20018;-61
2022/02/17 13:09:27;;;;;;;8.88;1.30;;;;;;;;;;5009132;28;20035;-61
2022/02/17 13:11:54;;;;;;;6.70;1.08;;;;;;;;;;5008595;28;20077;-61
2022/02/17 13:14:22;;;;;;;7.00;1.23;;;;;;;;;;5008258;28;20046;-62
2022/02/17 13:16:49;;;;;;;7.65;1.80;;;;;;;;;;5008838;28;20061;-64
2022/02/17 13:19:28;;;;;;;7.30;1.45;;;;;;;;;;5008459;28;20111;-63
2022/02/17 13:21:54;;;;;;;9.45;2.40;;;;;;;;;;5009238;28;20117;-62
2022/02/17 13:24:22;;;;;;;9.63;1.67;;;;;;;;;;5009702;28;20044;-61
2022/02/17 13:26:48;;;;;;;6.75;1.55;;;;;;;;;;5009410;28;20030;-60
2022/02/17 13:29:14;;;;;;;5.57;1.40;;;;;;;;;;5009605;28;20029;-61
2022/02/17 13:31:41;;;;;;;3.90;1.10;;;;;;;;;;5010482;28;20033;-60
2022/02/17 13:34:08;;;;;;;9.55;1.65;;;;;;;;;;5010098;28;20504;-60
2022/02/17 13:36:36;;;;;;;6.13;1.40;;;;;;;;;;5009549;28;20030;-60
2022/02/17 13:39:09;;;;;;;5.40;1.00;;;;;;;;;;5010107;28;20113;-60
2022/02/17 13:41:36;;;;;;;5.55;1.00;;;;;;;;;;5009542;28;20116;-60
2022/02/17 13:44:02;;;;;;;6.60;1.30;;;;;;;;;;5010090;28;20018;-61
2022/02/17 13:46:28;;;;;;;5.90;1.45;;;;;;;;;;5009725;28;20080;-61
2022/02/17 13:48:54;;;;;;;7.15;1.23;;;;;;;;;;5010455;28;20863;-61
2022/02/17 13:51:21;;;;;;;8.65;1.42;;;;;;;;;;5009832;28;20038;-61
2022/02/17 13:53:47;;;;;;;5.75;1.10;;;;;;;;;;5009912;28;20029;-61
2022/02/17 13:56:16;;;;;;;5.45;1.20;;;;;;;;;;5009723;28;20179;-62
2022/02/17 13:58:43;;;;;;;7.20;1.70;;;;;;;;;;5009050;28;20581;-61
2022/02/17 14:01:11;;;;;;;4.63;1.38;;;;;;;;;;5009979;28;20025;-62
2022/02/17 14:03:38;;;;;;;6.63;1.60;;;;;;;;;;5010108;28;20097;-62
2022/02/17 14:06:16;;;;;;;3.75;1.00;;;;;;;;;;5009620;28;20447;-61
2022/02/17 14:08:44;;;;;;;5.13;1.10;;;;;;;;;;5009620;28;20041;-60
2022/02/17 14:11:11;;;;;;;4.97;1.00;;;;;;;;;;5009164;28;20026;-62
2022/02/17 14:13:38;;;;;;;5.65;1.00;;;;;;;;;;5009602;28;20505;-61
2022/02/17 14:16:04;;;;;;;4.15;1.02;;;;;;;;;;5008646;28;20465;-62
2022/02/17 14:18:30;;;;;;;6.80;1.35;;;;;;;;;;5009235;28;20032;-61
2022/02/17 14:20:57;;;;;;;3.97;1.08;;;;;;;;;;5008790;28;20033;-61
2022/02/17 14:23:23;;;;;;;4.15;1.20;;;;;;;;;;5009521;28;20026;-60
2022/02/17 14:25:49;;;;;;;5.13;1.48;;;;;;;;;;5009245;28;20391;-60
2022/02/17 14:28:15;;;;;;;4.45;1.00;;;;;;;;;;5008594;28;20599;-60
2022/02/17 14:30:45;;;;;;;15.23;1.67;;;;;;;;;;5009809;28;20112;-60
2022/02/17 14:33:12;;;;;;;5.57;1.20;;;;;;;;;;5009114;28;20022;-60
2022/02/17 14:35:39;;;;;;;5.53;1.17;;;;;;;;;;5008420;28;20048;-61
2022/02/17 14:38:06;;;;;;;6.80;1.17;;;;;;;;;;5008892;28;20137;-60
2022/02/17 14:40:37;;;;;;;4.97;1.05;;;;;;;;;;5008734;28;20030;-60
2022/02/17 14:43:03;;;;;;;5.97;1.25;;;;;;;;;;5008733;28;20204;-60
2022/02/17 14:45:29;;;;;;;5.40;1.35;;;;;;;;;;5010162;28;20030;-60